createdAt,value
2023-12-13T00:01:05.987Z,3.35
2023-12-13T00:03:32.642Z,4.82
2023-12-13T00:05:59.212Z,3.55
2023-12-13T00:08:25.830Z,6.70
2023-12-13T00:10:52.454Z,3.85
2023-12-13T00:13:19.073Z,3.72
2023-12-13T00:15:45.633Z,5.25
2023-12-13T00:18:12.262Z,3.85
2023-12-13T00:20:39.285Z,3.50
2023-12-13T00:23:05.988Z,3.00
2023-12-13T00:25:33.710Z,5.40
2023-12-13T00:28:00.341Z,5.22
2023-12-13T00:30:26.928Z,3.47
2023-12-13T00:32:53.548Z,7.35
2023-12-13T00:35:20.336Z,3.92
2023-12-13T00:37:47.023Z,4.05
2023-12-13T00:40:13.818Z,2.97
2023-12-13T00:42:40.368Z,5.85
2023-12-13T00:45:07.661Z,2.78
2023-12-13T00:47:34.540Z,3.50
2023-12-13T00:50:01.596Z,2.72
2023-12-13T00:52:28.224Z,5.18
2023-12-13T00:54:54.872Z,3.05
2023-12-13T00:57:21.499Z,4.10
2023-12-13T00:59:48.035Z,2.95
2023-12-13T01:02:14.723Z,2.15
2023-12-13T01:04:41.559Z,5.47
2023-12-13T01:07:08.151Z,4.18
2023-12-13T01:09:34.798Z,3.00
2023-12-13T01:12:01.365Z,2.72
2023-12-13T01:14:27.919Z,5.43
2023-12-13T01:16:54.579Z,2.80
2023-12-13T01:19:21.259Z,2.60
2023-12-13T01:21:47.885Z,4.22
2023-12-13T01:24:14.483Z,4.63
2023-12-13T01:26:41.026Z,3.47
2023-12-13T01:29:07.661Z,3.45
2023-12-13T01:31:34.366Z,5.38
2023-12-13T01:34:00.939Z,1.98
2023-12-13T01:36:27.507Z,3.20
2023-12-13T01:38:54.071Z,4.57
2023-12-13T01:41:20.822Z,5.95
2023-12-13T01:43:47.646Z,8.93
2023-12-13T01:46:17.195Z,4.85
2023-12-13T01:48:45.387Z,4.25
2023-12-13T01:51:12.910Z,3.15
2023-12-13T01:53:41.482Z,6.57
2023-12-13T01:56:10.638Z,5.32
2023-12-13T01:58:38.322Z,4.05
2023-12-13T02:01:09.486Z,3.40
2023-12-13T02:03:39.515Z,2.58
2023-12-13T02:06:06.346Z,6.45
2023-12-13T02:08:34.072Z,4.40
2023-12-13T02:11:00.843Z,9.27
2023-12-13T02:13:27.493Z,5.78
2023-12-13T02:15:54.169Z,3.15
2023-12-13T02:18:20.835Z,3.92
2023-12-13T02:20:47.456Z,7.63
2023-12-13T02:23:14.050Z,8.38
2023-12-13T02:25:53.590Z,8.88
2023-12-13T02:28:21.071Z,3.53
2023-12-13T02:30:49.112Z,4.93
2023-12-13T02:33:15.702Z,6.07
2023-12-13T02:35:42.379Z,9.95
2023-12-13T02:38:08.936Z,6.95
2023-12-13T02:40:35.508Z,7.32
2023-12-13T02:43:02.108Z,4.38
2023-12-13T02:45:28.666Z,6.75
2023-12-13T02:47:55.249Z,2.63
2023-12-13T02:50:21.873Z,5.75
2023-12-13T02:52:48.460Z,6.45
2023-12-13T02:55:15.122Z,6.22
2023-12-13T02:57:41.740Z,7.22
2023-12-13T03:00:08.853Z,5.78
2023-12-13T03:02:36.104Z,5.10
2023-12-13T03:05:03.158Z,6.57
2023-12-13T03:07:30.204Z,10.30
2023-12-13T03:09:56.760Z,8.27
2023-12-13T03:12:23.345Z,6.40
2023-12-13T03:14:49.931Z,8.32
2023-12-13T03:17:16.553Z,5.32
2023-12-13T03:19:43.163Z,6.05
2023-12-13T03:22:09.918Z,8.95
2023-12-13T03:24:36.831Z,7.75
2023-12-13T03:27:03.782Z,5.72
2023-12-13T03:29:30.355Z,9.20
2023-12-13T03:31:57.024Z,4.40
2023-12-13T03:34:23.657Z,5.53
2023-12-13T03:36:50.277Z,6.63
2023-12-13T03:39:16.869Z,4.72
2023-12-13T03:41:43.545Z,6.68
2023-12-13T03:44:10.157Z,7.57
2023-12-13T03:46:40.080Z,8.55
2023-12-13T03:49:08.128Z,8.43
2023-12-13T03:51:34.786Z,5.45
2023-12-13T03:54:01.357Z,7.75
2023-12-13T03:56:27.992Z,6.75
2023-12-13T03:58:54.571Z,5.60
2023-12-13T04:01:21.682Z,5.78
2023-12-13T04:03:48.471Z,8.70
2023-12-13T04:06:15.155Z,5.60
2023-12-13T04:08:41.786Z,5.20
2023-12-13T04:11:08.346Z,5.70
2023-12-13T04:13:34.958Z,7.68
2023-12-13T04:16:01.530Z,4.20
2023-12-13T04:18:28.239Z,6.25
2023-12-13T04:20:54.943Z,9.00
2023-12-13T04:23:21.524Z,7.88
2023-12-13T04:25:48.422Z,7.35
2023-12-13T04:28:15.003Z,5.40
2023-12-13T04:30:41.612Z,6.65
2023-12-13T04:33:08.244Z,4.20
2023-12-13T04:35:34.850Z,8.75
2023-12-13T04:38:01.532Z,5.15
2023-12-13T04:40:28.241Z,8.98
2023-12-13T04:42:54.808Z,5.63
2023-12-13T04:45:21.350Z,7.18
2023-12-13T04:47:48.023Z,9.10
2023-12-13T04:50:14.688Z,4.60
2023-12-13T04:52:41.314Z,1.48
2023-12-13T04:55:08.306Z,5.78
2023-12-13T04:57:35.347Z,5.43
2023-12-13T05:00:02.266Z,7.88
2023-12-13T05:02:28.868Z,5.68
2023-12-13T05:04:55.525Z,8.57
2023-12-13T05:07:22.172Z,6.97
2023-12-13T05:09:48.786Z,8.95
2023-12-13T05:12:15.350Z,9.02
2023-12-13T05:14:41.907Z,6.95
2023-12-13T05:17:08.502Z,4.43
2023-12-13T05:19:35.218Z,7.25
2023-12-13T05:22:01.842Z,10.10
2023-12-13T05:24:28.419Z,6.93
2023-12-13T05:26:54.978Z,5.80
2023-12-13T05:29:21.541Z,4.80
2023-12-13T05:31:48.165Z,7.40
2023-12-13T05:34:14.837Z,12.35
2023-12-13T05:36:41.456Z,4.18
2023-12-13T05:39:08.070Z,11.77
2023-12-13T05:41:34.654Z,8.38
2023-12-13T05:44:01.340Z,11.52
2023-12-13T05:46:27.925Z,7.68
2023-12-13T05:48:54.721Z,7.07
2023-12-13T05:51:21.417Z,8.65
2023-12-13T05:53:48.012Z,7.40
2023-12-13T05:56:14.557Z,5.97
2023-12-13T05:58:41.168Z,7.22
2023-12-13T06:01:07.794Z,6.15
2023-12-13T06:03:34.457Z,6.30
2023-12-13T06:06:01.159Z,9.05
2023-12-13T06:08:27.932Z,8.95
2023-12-13T06:10:54.504Z,4.97
2023-12-13T06:13:21.103Z,6.20
2023-12-13T06:15:47.761Z,9.75
2023-12-13T06:18:14.366Z,9.75
2023-12-13T06:20:40.948Z,8.05
2023-12-13T06:23:07.522Z,7.63
2023-12-13T06:25:34.120Z,7.05
2023-12-13T06:28:00.684Z,12.00
2023-12-13T06:30:27.445Z,4.38
2023-12-13T06:32:54.123Z,5.82
2023-12-13T06:35:20.765Z,8.60
2023-12-13T06:37:47.471Z,5.20
2023-12-13T06:40:14.263Z,6.63
2023-12-13T06:42:41.188Z,8.95
2023-12-13T06:45:08.975Z,6.18
2023-12-13T06:47:36.007Z,7.07
2023-12-13T06:50:02.777Z,4.90
2023-12-13T06:52:29.391Z,4.38
2023-12-13T06:54:55.997Z,6.38
2023-12-13T06:57:32.030Z,8.95
2023-12-13T06:59:58.711Z,6.80
2023-12-13T07:02:25.262Z,5.72
2023-12-13T07:04:51.985Z,5.85
2023-12-13T07:07:18.622Z,5.28
2023-12-13T07:09:45.202Z,8.13
2023-12-13T07:12:11.853Z,4.03
2023-12-13T07:14:38.446Z,4.88
2023-12-13T07:17:05.166Z,7.18
2023-12-13T07:19:31.831Z,3.03
2023-12-13T07:21:58.528Z,4.05
2023-12-13T07:24:25.195Z,6.35
2023-12-13T07:26:51.758Z,7.90
2023-12-13T07:29:18.325Z,6.40
2023-12-13T07:31:44.965Z,9.27
2023-12-13T07:34:12.326Z,8.27
2023-12-13T07:36:38.966Z,4.60
2023-12-13T07:39:05.551Z,8.07
2023-12-13T07:41:32.131Z,5.22
2023-12-13T07:43:58.782Z,4.55
2023-12-13T07:46:25.453Z,5.40
2023-12-13T07:48:52.207Z,10.50
2023-12-13T07:51:18.796Z,8.68
2023-12-13T07:53:46.682Z,3.40
2023-12-13T07:56:21.234Z,5.10
2023-12-13T07:58:51.646Z,5.15
2023-12-13T08:01:18.706Z,2.47
2023-12-13T08:03:45.352Z,3.92
2023-12-13T08:06:16.076Z,2.80
2023-12-13T08:08:42.922Z,6.82
2023-12-13T08:11:09.486Z,7.53
2023-12-13T08:13:36.196Z,7.28
2023-12-13T08:16:02.841Z,4.28
2023-12-13T08:18:29.447Z,6.93
2023-12-13T08:20:56.171Z,15.23
2023-12-13T08:23:22.733Z,6.65
2023-12-13T08:25:49.323Z,6.95
2023-12-13T08:28:16.032Z,3.78
2023-12-13T08:30:42.690Z,5.53
2023-12-13T08:33:09.389Z,4.65
2023-12-13T08:35:36.031Z,5.63
2023-12-13T08:38:02.745Z,4.05
2023-12-13T08:40:29.404Z,8.90
2023-12-13T08:42:56.007Z,13.13
2023-12-13T08:45:22.800Z,8.70
2023-12-13T08:47:49.658Z,8.05
2023-12-13T08:50:16.526Z,5.57
2023-12-13T08:52:43.238Z,8.65
2023-12-13T08:55:09.991Z,5.60
2023-12-13T08:57:36.981Z,7.07
2023-12-13T09:00:09.309Z,7.63
2023-12-13T09:02:37.747Z,7.55
2023-12-13T09:05:04.807Z,7.57
2023-12-13T09:07:31.712Z,4.03
2023-12-13T09:09:58.491Z,4.72
2023-12-13T09:12:25.055Z,5.90
2023-12-13T09:14:51.638Z,7.43
2023-12-13T09:17:18.296Z,5.90
2023-12-13T09:19:44.972Z,5.53
2023-12-13T09:22:11.687Z,7.85
2023-12-13T09:24:38.255Z,7.15
2023-12-13T09:27:05.136Z,4.35
2023-12-13T09:29:31.708Z,3.95
2023-12-13T09:31:58.285Z,8.25
2023-12-13T09:34:24.925Z,7.97
2023-12-13T09:36:53.298Z,7.38
2023-12-13T09:39:19.854Z,5.38
2023-12-13T09:42:00.231Z,5.93
2023-12-13T09:44:27.430Z,7.18
2023-12-13T09:46:54.409Z,7.15
2023-12-13T09:49:33.393Z,7.40
2023-12-13T09:52:05.439Z,5.63
2023-12-13T09:54:34.380Z,5.85
2023-12-13T09:59:28.557Z,7.32
2023-12-13T10:01:57.425Z,4.65
2023-12-13T10:04:28.028Z,4.57
2023-12-13T10:06:55.476Z,3.97
2023-12-13T10:09:22.139Z,4.85
2023-12-13T10:11:48.757Z,1.67
2023-12-13T10:14:15.397Z,4.35
2023-12-13T10:16:42.044Z,4.07
2023-12-13T10:19:08.789Z,7.32
2023-12-13T10:21:36.534Z,3.20
2023-12-13T10:24:05.132Z,3.17
2023-12-13T10:26:40.747Z,9.52
2023-12-13T10:29:07.289Z,5.75
2023-12-13T10:31:34.232Z,8.55
2023-12-13T10:34:00.820Z,3.45
2023-12-13T10:36:28.513Z,4.28
2023-12-13T10:38:56.090Z,8.70
2023-12-13T10:41:25.873Z,6.07
2023-12-13T10:43:56.420Z,5.03
2023-12-13T10:46:26.586Z,7.38
2023-12-13T10:48:53.571Z,5.22
2023-12-13T10:51:20.906Z,4.82
2023-12-13T10:53:49.018Z,4.25
2023-12-13T10:56:16.398Z,6.07
2023-12-13T10:58:43.946Z,8.00
2023-12-13T11:01:10.908Z,4.47
2023-12-13T11:03:55.031Z,7.35
2023-12-13T11:06:22.710Z,4.07
2023-12-13T11:08:49.323Z,3.65
2023-12-13T11:11:19.162Z,4.75
2023-12-13T11:13:54.043Z,9.18
2023-12-13T11:16:22.699Z,4.13
2023-12-13T11:18:51.864Z,6.40
2023-12-13T11:21:29.727Z,5.65
2023-12-13T11:23:57.076Z,5.18
2023-12-13T11:26:23.929Z,3.55
2023-12-13T11:28:51.916Z,4.32
2023-12-13T11:31:22.836Z,4.95
2023-12-13T11:33:56.622Z,5.07
2023-12-13T11:36:25.330Z,7.78
2023-12-13T11:38:54.982Z,3.70
2023-12-13T11:41:21.766Z,2.92
2023-12-13T11:43:48.686Z,5.55
2023-12-13T11:46:15.551Z,5.03
2023-12-13T11:48:42.237Z,4.95
2023-12-13T11:51:08.848Z,6.18
2023-12-13T11:53:35.512Z,7.15
2023-12-13T11:56:02.137Z,8.63
2023-12-13T11:58:29.377Z,4.57
2023-12-13T12:00:58.608Z,3.95
2023-12-13T12:03:26.198Z,3.92
2023-12-13T12:05:52.950Z,3.72
2023-12-13T12:08:24.716Z,6.00
2023-12-13T12:10:52.115Z,5.72
2023-12-13T12:13:21.926Z,4.40
2023-12-13T12:15:48.683Z,6.97
2023-12-13T12:18:15.385Z,5.65
2023-12-13T12:20:42.593Z,7.70
2023-12-13T12:23:10.335Z,3.63
2023-12-13T12:25:36.968Z,6.45
2023-12-13T12:28:04.480Z,2.28
2023-12-13T12:30:31.139Z,4.03
2023-12-13T12:32:57.881Z,5.30
2023-12-13T12:35:24.504Z,5.32
2023-12-13T12:37:51.650Z,3.95
2023-12-13T12:40:18.495Z,2.78
2023-12-13T12:42:45.251Z,3.75
2023-12-13T12:45:12.148Z,4.32
2023-12-13T12:47:39.099Z,3.38
2023-12-13T12:50:06.986Z,4.72
2023-12-13T12:52:33.628Z,3.72
2023-12-13T12:55:00.206Z,5.32
2023-12-13T12:57:26.781Z,4.90
2023-12-13T12:59:53.341Z,2.65
2023-12-13T13:02:20.191Z,3.67
2023-12-13T13:04:46.947Z,2.10
2023-12-13T13:07:13.535Z,4.70
2023-12-13T13:09:40.095Z,4.38
2023-12-13T13:12:06.995Z,5.57
2023-12-13T13:14:33.544Z,6.78
2023-12-13T13:17:00.199Z,3.90
2023-12-13T13:19:26.877Z,5.85
2023-12-13T13:21:53.476Z,2.80
2023-12-13T13:24:20.243Z,4.72
2023-12-13T13:26:46.926Z,3.92
2023-12-13T13:29:13.512Z,3.38
2023-12-13T13:31:40.643Z,6.60
2023-12-13T13:34:07.238Z,6.95
2023-12-13T13:36:33.810Z,3.05
2023-12-13T13:39:00.424Z,7.55
2023-12-13T13:41:27.588Z,4.28
2023-12-13T13:43:54.441Z,3.55
2023-12-13T13:46:21.095Z,2.90
2023-12-13T13:48:47.691Z,3.53
2023-12-13T13:51:14.487Z,5.72
2023-12-13T13:53:41.263Z,6.70
2023-12-13T13:56:08.245Z,2.63
2023-12-13T13:58:34.905Z,3.83
2023-12-13T14:01:01.629Z,3.47
2023-12-13T14:03:28.290Z,3.00
2023-12-13T14:05:54.856Z,5.78
2023-12-13T14:08:21.438Z,3.58
2023-12-13T14:10:48.097Z,3.15
2023-12-13T14:13:14.810Z,7.75
2023-12-13T14:15:41.366Z,3.08
2023-12-13T14:18:08.685Z,5.72
2023-12-13T14:20:35.916Z,6.38
2023-12-13T14:23:02.583Z,5.55
2023-12-13T14:25:29.727Z,2.83
2023-12-13T14:27:56.425Z,5.60
2023-12-13T14:30:23.398Z,4.57
2023-12-13T14:32:51.263Z,2.70
2023-12-13T14:35:17.906Z,3.95
2023-12-13T14:37:44.610Z,7.13
2023-12-13T14:40:13.853Z,2.97
2023-12-13T14:42:40.449Z,4.50
2023-12-13T14:45:07.660Z,4.20
2023-12-13T14:47:34.610Z,6.38
2023-12-13T14:50:02.081Z,2.70
2023-12-13T14:52:28.854Z,4.88
2023-12-13T14:54:55.438Z,4.95
2023-12-13T14:57:22.012Z,3.30
2023-12-13T14:59:48.575Z,6.88
2023-12-13T15:02:15.221Z,3.45
2023-12-13T15:04:41.819Z,4.78
2023-12-13T15:07:08.761Z,3.67
2023-12-13T15:09:35.376Z,5.82
2023-12-13T15:12:01.944Z,3.03
2023-12-13T15:14:28.530Z,2.90
2023-12-13T15:16:55.205Z,2.90
2023-12-13T15:19:21.994Z,4.70
2023-12-13T15:21:48.705Z,3.97
2023-12-13T15:24:15.954Z,5.32
2023-12-13T15:26:43.745Z,7.18
2023-12-13T15:29:10.384Z,4.95
2023-12-13T15:31:37.003Z,3.85
2023-12-13T15:34:03.604Z,4.18
2023-12-13T15:36:30.214Z,3.45
2023-12-13T15:38:56.762Z,5.43
2023-12-13T15:41:23.300Z,5.65
2023-12-13T15:43:49.891Z,4.28
2023-12-13T15:46:16.578Z,3.17
2023-12-13T15:48:43.179Z,5.72
2023-12-13T15:51:09.815Z,6.10
2023-12-13T15:53:36.477Z,4.18
2023-12-13T15:56:04.621Z,6.65
2023-12-13T15:58:31.230Z,4.30
2023-12-13T16:00:57.876Z,2.20
2023-12-13T16:03:24.512Z,4.95
2023-12-13T16:05:51.226Z,3.92
2023-12-13T16:08:17.848Z,2.88
2023-12-13T16:10:44.505Z,4.00
2023-12-13T16:13:11.087Z,4.88
2023-12-13T16:15:37.635Z,11.57
2023-12-13T16:18:04.348Z,6.00
2023-12-13T16:20:31.081Z,7.20
2023-12-13T16:22:57.680Z,6.25
2023-12-13T16:25:24.427Z,7.70
2023-12-13T16:27:51.144Z,4.88
2023-12-13T16:30:17.997Z,6.18
2023-12-13T16:32:44.709Z,8.35
2023-12-13T16:35:11.485Z,5.90
2023-12-13T16:37:38.121Z,7.63
2023-12-13T16:40:07.110Z,7.60
2023-12-13T16:42:33.944Z,8.32
2023-12-13T16:45:00.758Z,8.85
2023-12-13T16:47:28.702Z,9.40
2023-12-13T16:49:55.331Z,15.52
2023-12-13T16:52:22.070Z,14.48
2023-12-13T16:54:49.801Z,14.82
2023-12-13T16:57:16.757Z,11.00
2023-12-13T16:59:43.606Z,12.52
2023-12-13T17:02:10.254Z,10.52
2023-12-13T17:04:36.860Z,13.77
2023-12-13T17:07:03.521Z,10.70
2023-12-13T17:09:30.205Z,12.18
2023-12-13T17:11:56.903Z,10.48
2023-12-13T17:14:23.659Z,8.32
2023-12-13T17:16:50.363Z,9.40
2023-12-13T17:19:20.574Z,7.00
2023-12-13T17:21:47.280Z,9.98
2023-12-13T17:24:14.317Z,5.75
2023-12-13T17:26:40.964Z,7.05
2023-12-13T17:29:07.544Z,7.72
2023-12-13T17:31:34.190Z,10.07
2023-12-13T17:34:00.921Z,8.65
2023-12-13T17:36:27.622Z,8.75
2023-12-13T17:38:54.186Z,7.72
2023-12-13T17:41:20.764Z,9.35
2023-12-13T17:43:47.531Z,7.07
2023-12-13T17:46:14.087Z,8.00
2023-12-13T17:48:40.715Z,9.63
2023-12-13T17:51:07.469Z,10.63
2023-12-13T17:53:34.067Z,11.02
2023-12-13T17:56:00.672Z,9.27
2023-12-13T17:58:27.312Z,9.80
2023-12-13T18:00:53.923Z,9.77
2023-12-13T18:03:20.568Z,10.80
2023-12-13T18:05:47.276Z,8.85
2023-12-13T18:08:13.887Z,9.90
2023-12-13T18:10:40.611Z,8.63
2023-12-13T18:13:07.225Z,9.57
2023-12-13T18:15:33.799Z,6.63
2023-12-13T18:18:00.570Z,9.77
2023-12-13T18:20:27.337Z,8.77
2023-12-13T18:22:53.950Z,11.65
2023-12-13T18:25:20.608Z,10.13
2023-12-13T18:27:47.153Z,10.07
2023-12-13T18:30:13.910Z,8.75
2023-12-13T18:32:40.774Z,14.13
2023-12-13T18:35:07.817Z,13.10
2023-12-13T18:37:34.505Z,14.75
2023-12-13T18:40:01.155Z,11.80
2023-12-13T18:42:28.016Z,11.25
2023-12-13T18:44:54.698Z,12.73
2023-12-13T18:47:21.555Z,8.93
2023-12-13T18:49:48.142Z,10.05
2023-12-13T18:52:14.746Z,10.52
2023-12-13T18:54:41.317Z,11.00
2023-12-13T18:57:08.063Z,13.02
2023-12-13T18:59:34.750Z,9.60
2023-12-13T19:02:01.420Z,20.65
2023-12-13T19:04:28.029Z,15.20
2023-12-13T19:06:54.856Z,17.52
2023-12-13T19:09:21.460Z,14.90
2023-12-13T19:11:49.221Z,15.70
2023-12-13T19:14:15.907Z,15.77
2023-12-13T19:16:42.739Z,11.02
2023-12-13T19:19:10.235Z,11.07
2023-12-13T19:21:36.876Z,10.90
2023-12-13T19:24:03.501Z,12.30
2023-12-13T19:26:30.206Z,10.50
2023-12-13T19:28:56.795Z,12.07
2023-12-13T19:31:23.478Z,10.80
2023-12-13T19:33:50.261Z,11.68
2023-12-13T19:36:17.008Z,15.25
2023-12-13T19:38:43.994Z,11.07
2023-12-13T19:41:10.785Z,11.63
2023-12-13T19:43:38.850Z,10.02
2023-12-13T19:46:09.044Z,11.48
2023-12-13T19:48:35.725Z,14.63
2023-12-13T19:51:02.422Z,12.35
2023-12-13T19:53:29.095Z,11.70
2023-12-13T19:55:55.726Z,12.60
2023-12-13T19:58:24.574Z,12.25
2023-12-13T20:00:52.801Z,15.75
2023-12-13T20:03:20.748Z,9.27
2023-12-13T20:05:47.469Z,7.78
2023-12-13T20:08:14.190Z,9.40
2023-12-13T20:10:40.913Z,11.40
2023-12-13T20:13:07.557Z,9.73
2023-12-13T20:15:35.296Z,10.75
2023-12-13T20:18:01.880Z,9.65
2023-12-13T20:20:28.482Z,10.00
2023-12-13T20:22:55.181Z,10.13
2023-12-13T20:25:21.790Z,13.60
2023-12-13T20:27:48.425Z,10.63
2023-12-13T20:30:15.152Z,15.55
2023-12-13T20:32:41.856Z,11.95
2023-12-13T20:35:09.383Z,14.50
2023-12-13T20:37:37.252Z,12.18
2023-12-13T20:40:04.450Z,11.30
2023-12-13T20:42:30.996Z,10.63
2023-12-13T20:44:59.505Z,12.52
2023-12-13T20:47:26.359Z,12.45
2023-12-13T20:49:53.075Z,11.63
2023-12-13T20:52:19.733Z,13.48
2023-12-13T20:54:46.283Z,12.63
2023-12-13T20:57:12.837Z,10.52
2023-12-13T20:59:39.624Z,11.18
2023-12-13T21:02:06.389Z,10.55
2023-12-13T21:04:33.108Z,12.65
2023-12-13T21:06:59.757Z,13.85
2023-12-13T21:09:26.301Z,14.60
2023-12-13T21:11:52.884Z,11.85
2023-12-13T21:14:19.459Z,17.55
2023-12-13T21:16:46.030Z,10.75
2023-12-13T21:19:12.685Z,13.10
2023-12-13T21:21:39.394Z,13.25
2023-12-13T21:24:14.426Z,13.32
2023-12-13T21:26:44.242Z,14.35
2023-12-13T21:29:11.900Z,14.73
2023-12-13T21:31:39.393Z,14.55
2023-12-13T21:34:06.266Z,14.93
2023-12-13T21:36:32.935Z,17.25
2023-12-13T21:38:59.488Z,15.93
2023-12-13T21:41:26.132Z,13.90
2023-12-13T21:43:52.916Z,15.15
2023-12-13T21:46:23.531Z,13.73
2023-12-13T21:48:51.294Z,17.02
2023-12-13T21:51:18.626Z,16.58
2023-12-13T21:53:46.103Z,13.43
2023-12-13T21:56:13.298Z,18.35
2023-12-13T21:58:40.342Z,15.27
2023-12-13T22:01:07.349Z,20.75
2023-12-13T22:03:34.169Z,20.70
2023-12-13T22:06:00.913Z,16.27
2023-12-13T22:08:27.616Z,21.92
2023-12-13T22:10:54.195Z,18.23
2023-12-13T22:13:20.927Z,20.08
2023-12-13T22:15:47.596Z,16.20
2023-12-13T22:18:14.322Z,14.38
2023-12-13T22:20:40.921Z,18.08
2023-12-13T22:23:07.492Z,15.55
2023-12-13T22:25:34.154Z,16.33
2023-12-13T22:28:00.710Z,18.13
2023-12-13T22:30:27.263Z,15.93
2023-12-13T22:32:53.879Z,16.80
2023-12-13T22:35:20.532Z,17.38
2023-12-13T22:37:47.222Z,18.10
2023-12-13T22:40:13.901Z,20.50
2023-12-13T22:42:40.471Z,16.60
2023-12-13T22:45:07.329Z,17.50
2023-12-13T22:47:33.956Z,21.35
2023-12-13T22:50:00.785Z,17.00
2023-12-13T22:52:27.481Z,15.68
2023-12-13T22:54:54.323Z,17.63
2023-12-13T22:57:20.878Z,17.25
2023-12-13T22:59:47.432Z,17.98
2023-12-13T23:02:14.074Z,18.10
2023-12-13T23:04:41.107Z,20.23
2023-12-13T23:07:07.863Z,16.50
2023-12-13T23:09:34.478Z,20.40
2023-12-13T23:12:01.032Z,17.85
2023-12-13T23:14:27.598Z,21.30
2023-12-13T23:16:55.774Z,21.50
2023-12-13T23:19:23.502Z,21.88
2023-12-13T23:21:52.447Z,24.30
2023-12-13T23:24:19.022Z,22.30
2023-12-13T23:26:45.580Z,22.65
2023-12-13T23:29:12.169Z,23.55
2023-12-13T23:31:42.023Z,25.52
2023-12-13T23:34:09.380Z,27.42
2023-12-13T23:36:36.119Z,22.23
2023-12-13T23:39:02.724Z,24.08
2023-12-13T23:41:29.277Z,21.73
2023-12-13T23:43:56.925Z,20.40
2023-12-13T23:46:23.540Z,22.55
2023-12-13T23:48:50.217Z,25.13
2023-12-13T23:51:16.998Z,22.92
2023-12-13T23:53:43.570Z,23.60
2023-12-13T23:56:23.602Z,27.60
2023-12-13T23:58:50.857Z,26.77
